createdAt,value
2019-02-24T00:01:20.980Z,60.19
2019-02-24T00:03:47.571Z,60.01
2019-02-24T00:06:15.805Z,59.94
2019-02-24T00:08:42.611Z,59.81
2019-02-24T00:11:09.879Z,59.95
2019-02-24T00:13:36.400Z,59.66
2019-02-24T00:16:02.882Z,59.59
2019-02-24T00:18:29.620Z,59.62
2019-02-24T00:20:56.030Z,59.88
2019-02-24T00:23:22.469Z,60.07
2019-02-24T00:25:48.882Z,60.03
2019-02-24T00:28:15.350Z,60.07
2019-02-24T00:30:41.899Z,60.66
2019-02-24T00:33:08.522Z,61.19
2019-02-24T00:35:34.967Z,61.10
2019-02-24T00:38:01.203Z,61.12
2019-02-24T00:40:27.609Z,61.28
2019-02-24T00:42:54.051Z,61.46
2019-02-24T00:45:20.471Z,61.62
2019-02-24T00:47:46.860Z,61.65
2019-02-24T00:50:13.555Z,61.81
2019-02-24T00:52:39.986Z,61.73
2019-02-24T00:55:06.693Z,61.73
2019-02-24T00:57:33.018Z,61.47
2019-02-24T00:59:59.606Z,61.06
2019-02-24T01:02:26.026Z,61.23
2019-02-24T01:04:52.667Z,61.32
2019-02-24T01:07:19.300Z,60.90
2019-02-24T01:09:45.743Z,60.64
2019-02-24T01:12:12.147Z,60.48
2019-02-24T01:14:38.810Z,60.33
2019-02-24T01:17:05.127Z,60.38
2019-02-24T01:19:31.524Z,60.39
2019-02-24T01:21:57.962Z,60.29
2019-02-24T01:24:24.295Z,59.96
2019-02-24T01:26:51.073Z,59.74
2019-02-24T01:29:17.410Z,59.69
2019-02-24T01:31:43.798Z,59.21
2019-02-24T01:34:10.290Z,59.12
2019-02-24T01:36:36.679Z,59.24
2019-02-24T01:39:03.905Z,59.13
2019-02-24T01:41:30.323Z,59.28
2019-02-24T01:43:56.622Z,58.45
2019-02-24T01:46:23.271Z,58.74
2019-02-24T01:48:49.655Z,58.36
2019-02-24T01:51:16.150Z,59.23
2019-02-24T01:53:42.513Z,59.31
2019-02-24T01:56:08.910Z,58.84
2019-02-24T01:58:35.533Z,58.71
2019-02-24T02:01:02.201Z,58.34
2019-02-24T02:03:28.799Z,58.59
2019-02-24T02:05:55.199Z,59.21
2019-02-24T02:08:21.819Z,59.10
2019-02-24T02:10:48.500Z,58.55
2019-02-24T02:13:15.138Z,58.92
2019-02-24T02:15:41.600Z,58.94
2019-02-24T02:18:07.961Z,59.10
2019-02-24T02:20:34.536Z,59.17
2019-02-24T02:23:00.937Z,59.27
2019-02-24T02:25:27.387Z,58.95
2019-02-24T02:27:53.842Z,58.56
2019-02-24T02:30:20.351Z,58.20
2019-02-24T02:32:46.910Z,58.33
2019-02-24T02:35:13.238Z,57.87
2019-02-24T02:37:39.795Z,58.07
2019-02-24T02:40:07.209Z,58.70
2019-02-24T02:42:33.547Z,58.66
2019-02-24T02:45:00.030Z,59.17
2019-02-24T02:47:26.415Z,59.45
2019-02-24T02:49:52.969Z,59.58
2019-02-24T02:52:19.579Z,59.43
2019-02-24T02:54:45.966Z,59.35
2019-02-24T02:57:12.367Z,59.61
2019-02-24T02:59:38.884Z,59.46
2019-02-24T03:02:05.378Z,59.88
2019-02-24T03:04:31.901Z,59.90
2019-02-24T03:07:18.361Z,59.94
2019-02-24T03:09:44.587Z,59.67
2019-02-24T03:12:11.068Z,59.60
2019-02-24T03:14:37.499Z,59.83
2019-02-24T03:17:04.032Z,59.66
2019-02-24T03:19:30.520Z,59.60
2019-02-24T03:21:56.946Z,59.79
2019-02-24T03:24:23.331Z,60.20
2019-02-24T03:26:50.103Z,59.96
2019-02-24T03:29:16.401Z,60.14
2019-02-24T03:31:42.724Z,60.34
2019-02-24T03:34:09.198Z,60.28
2019-02-24T03:36:35.829Z,60.28
2019-02-24T03:39:02.415Z,60.49
2019-02-24T03:41:28.806Z,60.60
2019-02-24T03:43:55.380Z,60.57
2019-02-24T03:46:21.813Z,60.37
2019-02-24T03:48:48.208Z,60.47
2019-02-24T03:51:14.531Z,60.75
2019-02-24T03:53:40.935Z,60.33
2019-02-24T03:56:07.362Z,60.25
2019-02-24T03:58:33.806Z,60.07
2019-02-24T04:01:00.512Z,60.23
2019-02-24T04:03:27.115Z,59.54
2019-02-24T04:05:53.507Z,59.45
2019-02-24T04:08:20.116Z,59.46
2019-02-24T04:10:46.689Z,59.21
2019-02-24T04:13:13.026Z,58.65
2019-02-24T04:15:39.406Z,59.05
2019-02-24T04:18:05.803Z,59.58
2019-02-24T04:20:32.485Z,59.38
2019-02-24T04:22:58.891Z,59.39
2019-02-24T04:25:25.218Z,59.47
2019-02-24T04:27:51.606Z,59.71
2019-02-24T04:30:18.054Z,59.94
2019-02-24T04:32:44.343Z,59.87
2019-02-24T04:35:10.673Z,59.72
2019-02-24T04:37:37.226Z,59.59
2019-02-24T04:40:06.327Z,59.66
2019-02-24T04:42:32.706Z,60.04
2019-02-24T04:44:59.019Z,60.35
2019-02-24T04:47:25.319Z,59.84
2019-02-24T04:49:51.830Z,59.80
2019-02-24T04:52:18.436Z,60.32
2019-02-24T04:54:44.737Z,59.38
2019-02-24T04:57:11.436Z,59.80
2019-02-24T04:59:38.010Z,59.89
2019-02-24T05:02:04.344Z,60.06
2019-02-24T05:04:30.722Z,59.71
2019-02-24T05:06:57.178Z,59.91
2019-02-24T05:09:23.759Z,58.96
2019-02-24T05:11:50.245Z,59.22
2019-02-24T05:14:16.568Z,59.33
2019-02-24T05:16:43.023Z,59.24
2019-02-24T05:19:09.474Z,59.46
2019-02-24T05:21:35.772Z,59.57
2019-02-24T05:24:02.197Z,60.04
2019-02-24T05:26:28.600Z,60.01
2019-02-24T05:28:54.923Z,59.92
2019-02-24T05:31:21.208Z,59.93
2019-02-24T05:33:47.658Z,60.00
2019-02-24T05:36:14.091Z,60.66
2019-02-24T05:38:40.486Z,60.52
2019-02-24T05:41:06.946Z,60.69
2019-02-24T05:43:33.480Z,60.99
2019-02-24T05:45:59.862Z,60.82
2019-02-24T05:48:26.632Z,60.55
2019-02-24T05:50:53.125Z,60.79
2019-02-24T05:53:19.519Z,60.24
2019-02-24T05:55:46.028Z,60.05
2019-02-24T05:58:12.466Z,60.11
2019-02-24T06:00:38.999Z,60.17
2019-02-24T06:03:05.391Z,59.96
2019-02-24T06:05:31.801Z,60.64
2019-02-24T06:07:58.127Z,60.35
2019-02-24T06:10:24.627Z,60.28
2019-02-24T06:12:51.083Z,60.36
2019-02-24T06:15:17.798Z,60.95
2019-02-24T06:17:44.204Z,61.22
2019-02-24T06:20:10.718Z,60.24
2019-02-24T06:22:37.039Z,60.89
2019-02-24T06:25:04.866Z,60.29
2019-02-24T06:27:31.431Z,59.50
2019-02-24T06:30:04.499Z,59.67
2019-02-24T06:32:26.038Z,59.29
2019-02-24T06:34:52.335Z,59.48
2019-02-24T06:37:18.791Z,59.02
2019-02-24T06:39:45.188Z,58.65
2019-02-24T06:42:11.719Z,58.59
2019-02-24T06:44:38.485Z,59.09
2019-02-24T06:47:05.046Z,58.61
2019-02-24T06:49:31.396Z,58.48
2019-02-24T06:51:57.774Z,59.16
2019-02-24T06:54:24.365Z,59.50
2019-02-24T06:56:50.647Z,58.34
2019-02-24T06:59:17.034Z,59.01
2019-02-24T07:01:43.401Z,59.11
2019-02-24T07:04:09.807Z,59.06
2019-02-24T07:06:36.290Z,59.09
2019-02-24T07:09:03.323Z,58.89
2019-02-24T07:11:29.723Z,58.18
2019-02-24T07:13:56.029Z,58.28
2019-02-24T07:16:22.306Z,57.96
2019-02-24T07:18:50.488Z,58.14
2019-02-24T07:21:16.962Z,57.76
2019-02-24T07:23:43.450Z,58.01
2019-02-24T07:26:09.780Z,58.06
2019-02-24T07:28:36.590Z,57.80
2019-02-24T07:31:03.018Z,57.46
2019-02-24T07:33:29.304Z,57.75
2019-02-24T07:35:55.819Z,57.50
2019-02-24T07:38:22.106Z,57.18
2019-02-24T07:40:48.426Z,57.14
2019-02-24T07:43:14.717Z,57.13
2019-02-24T07:45:41.151Z,56.94
2019-02-24T07:48:07.547Z,56.32
2019-02-24T07:50:33.935Z,56.51
2019-02-24T07:53:00.401Z,56.35
2019-02-24T07:55:26.768Z,56.16
2019-02-24T07:57:53.175Z,56.11
2019-02-24T08:00:19.597Z,55.93
2019-02-24T08:02:45.917Z,55.48
2019-02-24T08:05:12.374Z,56.03
2019-02-24T08:07:38.828Z,55.57
2019-02-24T08:10:06.498Z,55.93
2019-02-24T08:12:33.237Z,56.78
2019-02-24T08:14:59.637Z,56.65
2019-02-24T08:17:25.979Z,56.37
2019-02-24T08:19:52.435Z,55.86
2019-02-24T08:22:18.867Z,56.00
2019-02-24T08:24:45.358Z,55.45
2019-02-24T08:27:11.726Z,55.57
2019-02-24T08:29:38.090Z,56.05
2019-02-24T08:32:04.620Z,55.63
2019-02-24T08:34:30.988Z,55.83
2019-02-24T08:36:57.614Z,54.79
2019-02-24T08:39:23.933Z,54.81
2019-02-24T08:41:50.261Z,54.71
2019-02-24T08:44:16.545Z,54.68
2019-02-24T08:46:42.975Z,54.28
2019-02-24T08:49:09.363Z,54.60
2019-02-24T08:51:36.261Z,54.66
2019-02-24T08:54:02.648Z,54.20
2019-02-24T08:56:29.090Z,54.04
2019-02-24T08:58:55.458Z,54.90
2019-02-24T09:01:22.031Z,54.63
2019-02-24T09:03:48.502Z,53.93
2019-02-24T09:06:14.827Z,54.13
2019-02-24T09:08:41.220Z,54.47
2019-02-24T09:11:07.589Z,54.24
2019-02-24T09:13:33.881Z,54.12
2019-02-24T09:16:00.303Z,54.42
2019-02-24T09:18:26.704Z,54.31
2019-02-24T09:20:53.173Z,54.43
2019-02-24T09:23:19.608Z,53.84
2019-02-24T09:25:46.279Z,53.66
2019-02-24T09:28:12.581Z,53.48
2019-02-24T09:30:38.879Z,53.69
2019-02-24T09:33:05.313Z,53.92
2019-02-24T09:35:31.703Z,53.51
2019-02-24T09:37:57.998Z,53.59
2019-02-24T09:40:24.434Z,53.62
2019-02-24T09:42:50.871Z,52.84
2019-02-24T09:45:17.182Z,53.22
2019-02-24T09:47:46.645Z,53.26
2019-02-24T09:50:11.958Z,52.78
2019-02-24T09:52:38.367Z,52.47
2019-02-24T09:55:08.423Z,52.82
2019-02-24T09:57:36.931Z,52.81
2019-02-24T10:00:12.449Z,52.65
2019-02-24T10:02:39.070Z,52.36
2019-02-24T10:05:05.877Z,52.25
2019-02-24T10:07:32.274Z,51.65
2019-02-24T10:09:58.855Z,51.70
2019-02-24T10:12:25.430Z,51.62
2019-02-24T10:14:51.927Z,52.21
2019-02-24T10:17:18.603Z,51.86
2019-02-24T10:19:44.923Z,51.87
2019-02-24T10:22:11.378Z,51.47
2019-02-24T10:24:38.061Z,51.17
2019-02-24T10:27:04.345Z,51.26
2019-02-24T10:29:30.781Z,51.98
2019-02-24T10:31:57.174Z,51.97
2019-02-24T10:34:23.535Z,51.74
2019-02-24T10:36:50.082Z,51.63
2019-02-24T10:39:16.618Z,52.69
2019-02-24T10:41:43.054Z,52.46
2019-02-24T10:44:09.456Z,51.95
2019-02-24T10:46:35.861Z,51.69
2019-02-24T10:49:03.618Z,51.86
2019-02-24T10:51:30.279Z,51.02
2019-02-24T10:53:56.571Z,50.20
2019-02-24T10:56:23.019Z,49.25
2019-02-24T10:58:49.718Z,48.29
2019-02-24T11:01:16.117Z,48.89
2019-02-24T11:03:42.646Z,47.92
2019-02-24T11:06:08.931Z,47.64
2019-02-24T11:08:35.496Z,48.09
2019-02-24T11:11:01.991Z,48.50
2019-02-24T11:13:28.487Z,47.88
2019-02-24T11:15:54.784Z,48.11
2019-02-24T11:18:21.282Z,47.96
2019-02-24T11:20:47.669Z,48.69
2019-02-24T11:23:14.036Z,48.62
2019-02-24T11:25:40.451Z,49.04
2019-02-24T11:28:06.942Z,48.65
2019-02-24T11:30:33.274Z,48.79
2019-02-24T11:32:59.628Z,48.70
2019-02-24T11:35:26.210Z,48.58
2019-02-24T11:37:52.626Z,48.10
2019-02-24T11:40:19.025Z,47.46
2019-02-24T11:42:45.441Z,47.55
2019-02-24T11:45:11.963Z,47.60
2019-02-24T11:47:38.374Z,48.50
2019-02-24T11:50:10.634Z,47.31
2019-02-24T11:52:37.046Z,47.28
2019-02-24T11:55:04.871Z,47.21
2019-02-24T11:57:31.190Z,46.46
2019-02-24T11:59:57.710Z,46.17
2019-02-24T12:02:24.109Z,46.37
2019-02-24T12:04:50.556Z,45.04
2019-02-24T12:07:16.942Z,45.61
2019-02-24T12:09:43.337Z,45.86
2019-02-24T12:12:09.792Z,45.43
2019-02-24T12:14:36.232Z,45.39
2019-02-24T12:17:02.538Z,45.64
2019-02-24T12:19:28.933Z,45.62
2019-02-24T12:21:55.275Z,45.71
2019-02-24T12:24:21.634Z,44.91
2019-02-24T12:26:48.285Z,45.17
2019-02-24T12:29:14.680Z,44.89
2019-02-24T12:31:41.115Z,45.44
2019-02-24T12:34:07.402Z,45.82
2019-02-24T12:36:33.826Z,44.72
2019-02-24T12:39:00.191Z,44.12
2019-02-24T12:41:26.745Z,44.87
2019-02-24T12:43:53.293Z,44.59
2019-02-24T12:46:20.205Z,44.77
2019-02-24T12:48:46.773Z,44.11
2019-02-24T12:51:13.161Z,43.40
2019-02-24T12:53:39.657Z,44.70
2019-02-24T12:56:06.046Z,44.17
2019-02-24T12:58:32.405Z,42.78
2019-02-24T13:00:58.869Z,42.82
2019-02-24T13:03:25.399Z,43.12
2019-02-24T13:05:59.430Z,43.67
2019-02-24T13:08:25.771Z,43.09
2019-02-24T13:10:52.178Z,42.60
2019-02-24T13:13:18.558Z,42.87
2019-02-24T13:15:44.936Z,42.52
2019-02-24T13:18:11.544Z,42.73
2019-02-24T13:20:38.046Z,42.16
2019-02-24T13:23:04.354Z,42.50
2019-02-24T13:25:30.741Z,42.87
2019-02-24T13:27:57.266Z,42.84
2019-02-24T13:30:23.755Z,41.92
2019-02-24T13:32:50.118Z,41.97
2019-02-24T13:35:16.416Z,41.69
2019-02-24T13:37:42.943Z,42.65
2019-02-24T13:40:13.843Z,42.13
2019-02-24T13:42:40.346Z,41.42
2019-02-24T13:45:16.136Z,41.40
2019-02-24T13:47:42.449Z,42.14
2019-02-24T13:50:09.054Z,42.28
2019-02-24T13:52:35.580Z,41.59
2019-02-24T13:55:02.583Z,41.03
2019-02-24T13:57:28.910Z,42.19
2019-02-24T13:59:55.290Z,41.62
2019-02-24T14:02:24.128Z,41.59
2019-02-24T14:04:49.970Z,41.20
2019-02-24T14:07:16.474Z,40.81
2019-02-24T14:09:42.768Z,42.31
2019-02-24T14:12:09.123Z,42.40
2019-02-24T14:14:35.582Z,41.84
2019-02-24T14:17:02.147Z,41.72
2019-02-24T14:19:28.636Z,41.28
2019-02-24T14:21:55.083Z,41.32
2019-02-24T14:24:21.512Z,41.77
2019-02-24T14:26:47.936Z,41.81
2019-02-24T14:29:14.288Z,41.56
2019-02-24T14:31:40.725Z,42.00
2019-02-24T14:34:07.115Z,42.45
2019-02-24T14:36:33.939Z,42.44
2019-02-24T14:39:00.251Z,41.96
2019-02-24T14:41:26.586Z,41.93
2019-02-24T14:43:53.080Z,42.39
2019-02-24T14:46:19.545Z,42.86
2019-02-24T14:48:45.945Z,42.35
2019-02-24T14:51:12.587Z,41.95
2019-02-24T14:53:39.057Z,41.73
2019-02-24T14:56:05.353Z,42.02
2019-02-24T14:58:33.744Z,41.18
2019-02-24T15:01:00.842Z,40.90
2019-02-24T15:03:27.599Z,41.02
2019-02-24T15:05:54.062Z,41.31
2019-02-24T15:08:20.373Z,41.35
2019-02-24T15:10:48.248Z,41.05
2019-02-24T15:13:14.990Z,40.19
2019-02-24T15:15:41.281Z,40.60
2019-02-24T15:18:07.720Z,41.02
2019-02-24T15:20:34.290Z,41.21
2019-02-24T15:23:00.584Z,41.25
2019-02-24T15:25:26.990Z,41.73
2019-02-24T15:27:53.378Z,40.91
2019-02-24T15:30:33.370Z,40.90
2019-02-24T15:32:59.892Z,40.45
2019-02-24T15:35:26.662Z,40.56
2019-02-24T15:37:53.098Z,40.98
2019-02-24T15:40:19.675Z,41.09
2019-02-24T15:42:46.414Z,41.17
2019-02-24T15:45:12.796Z,41.42
2019-02-24T15:47:39.142Z,41.10
2019-02-24T15:50:10.923Z,40.85
2019-02-24T15:52:37.296Z,41.36
2019-02-24T15:55:07.624Z,41.29
2019-02-24T15:57:34.125Z,41.36
2019-02-24T16:00:00.468Z,41.01
2019-02-24T16:02:28.595Z,41.15
2019-02-24T16:04:55.184Z,41.96
2019-02-24T16:07:21.702Z,41.18
2019-02-24T16:09:48.135Z,40.59
2019-02-24T16:12:14.594Z,40.89
2019-02-24T16:14:41.138Z,40.79
2019-02-24T16:17:07.658Z,40.72
2019-02-24T16:19:34.059Z,41.28
2019-02-24T16:22:00.663Z,41.35
2019-02-24T16:24:27.067Z,40.93
2019-02-24T16:26:53.394Z,40.92
2019-02-24T16:29:19.737Z,41.27
2019-02-24T16:31:46.294Z,41.32
2019-02-24T16:34:12.666Z,41.52
2019-02-24T16:36:39.056Z,41.47
2019-02-24T16:39:05.691Z,41.30
2019-02-24T16:41:31.984Z,41.49
2019-02-24T16:43:58.335Z,41.01
2019-02-24T16:46:24.629Z,41.02
2019-02-24T16:48:51.302Z,41.23
2019-02-24T16:51:17.692Z,41.74
2019-02-24T16:53:44.268Z,41.68
2019-02-24T16:56:10.597Z,41.88
2019-02-24T16:58:36.915Z,41.78
2019-02-24T17:01:03.420Z,41.45
2019-02-24T17:03:29.966Z,41.87
2019-02-24T17:05:56.678Z,42.58
2019-02-24T17:08:23.123Z,43.00
2019-02-24T17:11:12.717Z,42.83
2019-02-24T17:13:48.698Z,42.03
2019-02-24T17:16:14.913Z,41.75
2019-02-24T17:18:41.439Z,41.24
2019-02-24T17:21:07.724Z,41.65
2019-02-24T17:23:34.369Z,41.57
2019-02-24T17:26:00.690Z,41.45
2019-02-24T17:28:27.266Z,41.03
2019-02-24T17:30:54.142Z,42.06
2019-02-24T17:33:29.524Z,42.84
2019-02-24T17:35:48.797Z,43.60
2019-02-24T17:38:15.503Z,43.39
2019-02-24T17:40:41.856Z,42.41
2019-02-24T17:43:08.255Z,41.90
2019-02-24T17:45:34.698Z,41.70
2019-02-24T17:48:00.984Z,41.62
2019-02-24T17:50:27.711Z,41.67
2019-02-24T17:52:54.054Z,42.04
2019-02-24T17:55:20.661Z,41.91
2019-02-24T17:57:47.234Z,42.29
2019-02-24T18:00:31.976Z,41.82
2019-02-24T18:02:58.868Z,41.39
2019-02-24T18:05:25.265Z,41.49
2019-02-24T18:07:51.738Z,41.97
2019-02-24T18:10:18.323Z,43.03
2019-02-24T18:12:44.930Z,43.80
2019-02-24T18:15:11.761Z,43.07
2019-02-24T18:17:38.334Z,43.36
2019-02-24T18:20:09.335Z,42.97
2019-02-24T18:22:35.787Z,43.94
2019-02-24T18:25:03.850Z,44.41
2019-02-24T18:27:30.240Z,45.04
2019-02-24T18:29:56.849Z,44.75
2019-02-24T18:32:23.607Z,45.23
2019-02-24T18:34:50.036Z,45.82
2019-02-24T18:37:16.478Z,45.64
2019-02-24T18:39:43.110Z,44.86
2019-02-24T18:42:09.442Z,45.20
2019-02-24T18:44:36.037Z,44.49
2019-02-24T18:47:02.586Z,44.09
2019-02-24T18:49:29.362Z,45.11
2019-02-24T18:51:55.802Z,45.66
2019-02-24T18:54:22.443Z,45.14
2019-02-24T18:56:49.211Z,44.83
2019-02-24T18:59:15.691Z,46.50
2019-02-24T19:01:42.132Z,46.85
2019-02-24T19:04:08.759Z,45.53
2019-02-24T19:06:39.110Z,43.80
2019-02-24T19:09:04.124Z,45.50
2019-02-24T19:11:30.466Z,45.19
2019-02-24T19:13:56.775Z,44.52
2019-02-24T19:16:23.204Z,42.83
2019-02-24T19:18:49.704Z,42.32
2019-02-24T19:21:16.122Z,42.06
2019-02-24T19:23:45.104Z,42.32
2019-02-24T19:26:11.409Z,42.80
2019-02-24T19:28:37.922Z,42.97
2019-02-24T19:31:04.376Z,44.45
2019-02-24T19:33:30.793Z,45.25
2019-02-24T19:35:57.133Z,45.62
2019-02-24T19:38:23.520Z,45.42
2019-02-24T19:40:50.037Z,44.70
2019-02-24T19:43:16.498Z,43.61
2019-02-24T19:45:43.003Z,43.57
2019-02-24T19:48:09.437Z,44.67
2019-02-24T19:50:35.873Z,44.85
2019-02-24T19:53:02.204Z,45.07
2019-02-24T19:55:28.612Z,44.43
2019-02-24T19:57:55.015Z,45.07
2019-02-24T20:00:25.449Z,44.64
2019-02-24T20:02:52.068Z,45.01
2019-02-24T20:05:19.174Z,45.51
2019-02-24T20:07:46.574Z,46.33
2019-02-24T20:10:25.293Z,45.68
2019-02-24T20:12:51.930Z,46.52
2019-02-24T20:15:18.337Z,47.42
2019-02-24T20:17:44.896Z,46.94
2019-02-24T20:20:15.512Z,47.00
2019-02-24T20:22:41.922Z,46.65
2019-02-24T20:25:17.111Z,46.93
2019-02-24T20:27:43.651Z,46.25
2019-02-24T20:30:23.066Z,46.74
2019-02-24T20:32:49.609Z,47.12
2019-02-24T20:35:15.917Z,46.58
2019-02-24T20:37:42.450Z,45.30
2019-02-24T20:40:10.856Z,45.29
2019-02-24T20:42:37.293Z,45.72
2019-02-24T20:45:08.834Z,45.12
2019-02-24T20:47:35.803Z,45.03
2019-02-24T20:50:06.297Z,45.06
2019-02-24T20:52:32.714Z,45.13
2019-02-24T20:54:59.128Z,45.37
2019-02-24T20:57:25.472Z,45.31
2019-02-24T20:59:51.753Z,45.56
2019-02-24T21:02:18.325Z,45.53
2019-02-24T21:04:44.638Z,45.43
2019-02-24T21:07:11.023Z,44.24
2019-02-24T21:09:37.610Z,44.58
2019-02-24T21:12:04.312Z,44.33
2019-02-24T21:14:30.972Z,43.95
2019-02-24T21:16:57.741Z,44.67
2019-02-24T21:19:24.066Z,44.53
2019-02-24T21:21:50.661Z,44.86
2019-02-24T21:24:17.116Z,44.62
2019-02-24T21:26:43.439Z,45.77
2019-02-24T21:29:10.056Z,45.96
2019-02-24T21:31:36.599Z,45.76
2019-02-24T21:34:02.946Z,46.28
2019-02-24T21:36:29.528Z,46.48
2019-02-24T21:38:56.038Z,46.17
2019-02-24T21:41:22.453Z,45.56
2019-02-24T21:43:49.062Z,45.71
2019-02-24T21:46:15.596Z,45.75
2019-02-24T21:48:42.008Z,45.44
2019-02-24T21:51:08.440Z,44.76
2019-02-24T21:53:34.748Z,45.18
2019-02-24T21:56:01.078Z,44.45
2019-02-24T21:58:27.369Z,44.88
2019-02-24T22:00:53.711Z,44.63
2019-02-24T22:03:20.221Z,45.40
2019-02-24T22:05:46.637Z,45.03
2019-02-24T22:08:12.949Z,44.78
2019-02-24T22:10:39.267Z,44.46
2019-02-24T22:13:05.680Z,45.40
2019-02-24T22:15:32.197Z,45.80
2019-02-24T22:17:58.676Z,44.72
2019-02-24T22:20:25.121Z,44.53
2019-02-24T22:22:51.693Z,44.91
2019-02-24T22:25:18.183Z,44.83
2019-02-24T22:27:44.532Z,46.03
2019-02-24T22:30:14.268Z,45.85
2019-02-24T22:32:40.662Z,45.02
2019-02-24T22:35:08.253Z,45.21
2019-02-24T22:37:34.645Z,45.24
2019-02-24T22:40:01.099Z,45.89
2019-02-24T22:42:27.402Z,46.09
2019-02-24T22:44:53.748Z,45.24
2019-02-24T22:47:20.034Z,45.13
2019-02-24T22:49:46.390Z,45.75
2019-02-24T22:52:12.691Z,45.70
2019-02-24T22:54:39.205Z,45.05
2019-02-24T22:57:05.799Z,44.90
2019-02-24T22:59:32.315Z,44.85
2019-02-24T23:01:58.638Z,45.37
2019-02-24T23:04:24.979Z,45.35
2019-02-24T23:06:51.401Z,44.95
2019-02-24T23:09:18.821Z,45.05
2019-02-24T23:11:45.313Z,45.02
2019-02-24T23:14:11.711Z,44.85
2019-02-24T23:16:38.330Z,44.71
2019-02-24T23:19:04.824Z,44.58
2019-02-24T23:21:31.280Z,45.00
2019-02-24T23:23:57.939Z,45.01
2019-02-24T23:26:24.329Z,45.24
2019-02-24T23:28:50.637Z,45.44
2019-02-24T23:31:16.951Z,45.61
2019-02-24T23:33:43.399Z,45.29
2019-02-24T23:36:09.789Z,45.17
2019-02-24T23:38:36.367Z,45.62
2019-02-24T23:41:02.723Z,45.31
2019-02-24T23:43:30.671Z,44.98
2019-02-24T23:45:57.430Z,45.72
2019-02-24T23:48:23.864Z,45.42
2019-02-24T23:50:50.328Z,45.07
2019-02-24T23:53:16.979Z,45.16
2019-02-24T23:55:43.368Z,45.30
2019-02-24T23:58:09.860Z,45.23
